« Back
NWS Peachtree City, Ga » Text Product » AHN Terminal Aerodrome Forecast


Printer-friendly Version
Current Version              Previous Versions:   1  2  3  4  5  6  7  8  9  

Terminal Aerodrome Forecast

392
FTUS42 KFFC 221700
TAFAHN
TAF
KAHN 221737Z 2218/2318 09005KT P6SM VCSH SCT025 BKN035
      TEMPO 2219/2223 4SM -TSRA BKN020CB
     FM230000 09003KT P6SM BKN035
     FM230900 00000KT 4SM BR BKN006
     FM231400 27003KT P6SM BKN020
     FM231700 25007KT P6SM VCSH SCT035 BKN050=



USA.gov is the U.S. government's official web portal to all federal, state and local government web resources and services.